createdAt,value
2023-04-01T00:00:55.324Z,2.90
2023-04-01T00:03:30.593Z,3.00
2023-04-01T00:06:22.035Z,3.05
2023-04-01T00:09:38.884Z,2.50
2023-04-01T00:12:12.897Z,3.17
2023-04-01T00:14:54.968Z,2.58
2023-04-01T00:17:24.261Z,3.00
2023-04-01T00:19:57.293Z,3.63
2023-04-01T00:22:35.700Z,2.72
2023-04-01T00:25:52.129Z,3.42
2023-04-01T00:34:29.941Z,3.20
2023-04-01T00:42:24.570Z,2.20
2023-04-01T00:45:07.892Z,2.17
2023-04-01T00:52:53.155Z,2.35
2023-04-01T00:57:41.021Z,1.67
2023-04-01T01:06:28.261Z,2.42
2023-04-01T01:08:41.427Z,2.42
2023-04-01T01:11:25.274Z,2.13
2023-04-01T01:14:27.504Z,2.47
2023-04-01T01:17:32.989Z,2.00
2023-04-01T01:20:34.648Z,2.70
2023-04-01T01:23:09.064Z,2.60
2023-04-01T01:26:14.273Z,2.40
2023-04-01T01:29:30.171Z,1.90
2023-04-01T01:32:23.148Z,2.20
2023-04-01T01:35:18.762Z,2.80
2023-04-01T01:37:51.452Z,2.80
2023-04-01T01:40:22.382Z,2.55
2023-04-01T01:42:59.004Z,2.15
2023-04-01T01:45:29.390Z,2.35
2023-04-01T01:48:00.201Z,2.72
2023-04-01T01:50:29.408Z,2.63
2023-04-01T01:53:03.306Z,2.28
2023-04-01T01:55:34.510Z,2.55
2023-04-01T01:58:11.841Z,3.05
2023-04-01T02:00:52.002Z,2.45
2023-04-01T02:03:24.788Z,4.10
2023-04-01T02:06:02.688Z,2.63
2023-04-01T02:08:46.111Z,2.90
2023-04-01T02:11:21.453Z,2.50
2023-04-01T02:14:08.468Z,2.55
2023-04-01T02:17:01.419Z,2.60
2023-04-01T02:23:03.720Z,2.85
2023-04-01T02:25:36.741Z,2.75
2023-04-01T02:28:11.669Z,2.95
2023-04-01T02:30:44.298Z,2.80
2023-04-01T02:33:21.611Z,2.90
2023-04-01T02:35:50.278Z,2.92
2023-04-01T02:38:19.276Z,4.57
2023-04-01T02:40:58.432Z,3.20
2023-04-01T02:43:28.255Z,2.60
2023-04-01T02:46:03.044Z,2.90
2023-04-01T02:48:35.366Z,3.15
2023-04-01T02:51:04.105Z,3.35
2023-04-01T02:53:34.222Z,3.28
2023-04-01T02:56:02.598Z,3.33
2023-04-01T02:58:32.327Z,3.33
2023-04-01T03:01:01.754Z,3.30
2023-04-01T03:03:31.547Z,2.80
2023-04-01T03:06:11.064Z,3.40
2023-04-01T03:11:11.494Z,3.53
2023-04-01T03:13:45.644Z,3.85
2023-04-01T03:16:15.706Z,4.28
2023-04-01T03:18:44.820Z,4.82
2023-04-01T03:21:17.002Z,5.05
2023-04-01T03:23:45.627Z,5.00
2023-04-01T03:26:14.841Z,5.03
2023-04-01T03:28:44.994Z,5.18
2023-04-01T03:31:13.897Z,4.70
2023-04-01T03:33:49.128Z,3.85
2023-04-01T03:36:18.191Z,3.97
2023-04-01T03:38:48.033Z,3.90
2023-04-01T03:41:21.962Z,3.92
2023-04-01T03:43:50.906Z,4.05
2023-04-01T03:46:20.757Z,4.03
2023-04-01T03:48:49.474Z,4.32
2023-04-01T03:51:17.505Z,4.20
2023-04-01T03:53:46.571Z,4.73
2023-04-01T03:56:14.780Z,4.15
2023-04-01T03:58:46.415Z,3.70
2023-04-01T04:01:22.129Z,3.85
2023-04-01T04:03:57.544Z,4.22
2023-04-01T04:06:27.613Z,3.55
2023-04-01T04:08:56.830Z,4.05
2023-04-01T04:11:25.205Z,3.67
2023-04-01T04:14:00.045Z,3.60
2023-04-01T04:16:29.144Z,3.28
2023-04-01T04:19:04.174Z,3.45
2023-04-01T04:21:34.992Z,3.65
2023-04-01T04:24:06.860Z,3.70
2023-04-01T04:26:55.912Z,3.60
2023-04-01T04:29:24.912Z,3.72
2023-04-01T04:31:56.260Z,4.03
2023-04-01T04:34:30.769Z,4.20
2023-04-01T04:36:59.561Z,4.03
2023-04-01T04:39:34.178Z,4.47
2023-04-01T04:42:02.671Z,4.18
2023-04-01T04:44:35.026Z,4.55
2023-04-01T04:47:04.230Z,4.82
2023-04-01T04:49:35.077Z,4.60
2023-04-01T04:52:08.258Z,4.78
2023-04-01T04:54:37.042Z,4.75
2023-04-01T04:57:07.336Z,4.53
2023-04-01T04:59:42.542Z,4.78
2023-04-01T05:02:32.911Z,5.57
2023-04-01T05:05:01.672Z,5.40
2023-04-01T05:07:32.531Z,5.30
2023-04-01T05:10:01.458Z,5.60
2023-04-01T05:12:31.920Z,5.22
2023-04-01T05:15:04.106Z,5.60
2023-04-01T05:17:34.769Z,4.97
2023-04-01T05:20:05.274Z,5.57
2023-04-01T05:22:33.455Z,5.18
2023-04-01T05:25:04.282Z,4.80
2023-04-01T05:27:33.151Z,5.23
2023-04-01T05:30:04.634Z,4.35
2023-04-01T05:32:56.998Z,4.25
2023-04-01T05:35:26.277Z,4.97
2023-04-01T05:37:54.638Z,4.43
2023-04-01T05:40:23.631Z,4.30
2023-04-01T05:42:52.012Z,3.92
2023-04-01T05:45:20.792Z,3.92
2023-04-01T05:48:11.176Z,4.10
2023-04-01T05:50:45.364Z,4.88
2023-04-01T05:53:15.638Z,5.20
2023-04-01T05:55:45.455Z,6.55
2023-04-01T05:58:13.730Z,5.80
2023-04-01T06:00:46.467Z,6.15
2023-04-01T06:03:32.435Z,5.68
2023-04-01T06:06:04.648Z,6.57
2023-04-01T06:08:35.482Z,6.35
2023-04-01T06:11:26.641Z,6.45
2023-04-01T06:14:24.568Z,6.68
2023-04-01T06:17:17.422Z,6.25
2023-04-01T06:20:13.489Z,7.18
2023-04-01T06:22:50.810Z,5.93
2023-04-01T06:25:38.549Z,5.88
2023-04-01T06:28:45.969Z,5.10
2023-04-01T06:31:19.929Z,5.93
2023-04-01T06:34:31.152Z,5.95
2023-04-01T06:37:37.433Z,6.40
2023-04-01T06:40:14.215Z,6.53
2023-04-01T06:43:21.072Z,7.35
2023-04-01T06:46:31.745Z,7.10
2023-04-01T06:49:44.664Z,6.78
2023-04-01T06:52:55.436Z,6.93
2023-04-01T06:55:57.225Z,6.22
2023-04-01T06:59:13.806Z,6.35
2023-04-01T07:01:50.024Z,12.20
2023-04-01T07:04:33.102Z,5.82
2023-04-01T07:07:43.861Z,6.28
2023-04-01T07:10:20.944Z,5.90
2023-04-01T07:13:16.269Z,5.78
2023-04-01T07:16:35.960Z,6.00
2023-04-01T07:19:27.220Z,6.70
2023-04-01T07:22:11.960Z,6.60
2023-04-01T07:25:15.140Z,6.20
2023-04-01T07:27:47.552Z,6.70
2023-04-01T07:30:31.113Z,5.90
2023-04-01T07:33:18.573Z,6.50
2023-04-01T07:36:15.115Z,6.65
2023-04-01T07:39:00.687Z,6.07
2023-04-01T07:42:09.875Z,6.18
2023-04-01T07:44:47.128Z,5.63
2023-04-01T07:47:39.808Z,5.63
2023-04-01T07:50:18.873Z,6.63
2023-04-01T07:53:10.153Z,6.10
2023-04-01T07:55:45.085Z,6.55
2023-04-01T07:58:25.847Z,6.38
2023-04-01T08:01:12.335Z,6.72
2023-04-01T08:03:59.956Z,9.98
2023-04-01T08:06:52.313Z,5.97
2023-04-01T08:09:38.463Z,5.72
2023-04-01T08:12:36.788Z,5.93
2023-04-01T08:15:58.858Z,6.45
2023-04-01T08:18:52.800Z,6.03
2023-04-01T08:21:32.956Z,5.95
2023-04-01T08:24:12.706Z,5.80
2023-04-01T08:26:52.029Z,5.70
2023-04-01T08:29:25.001Z,6.18
2023-04-01T08:32:05.127Z,5.88
2023-04-01T08:34:43.684Z,7.20
2023-04-01T08:37:27.174Z,5.90
2023-04-01T08:40:03.072Z,5.85
2023-04-01T08:43:03.766Z,6.30
2023-04-01T08:45:56.812Z,6.55
2023-04-01T08:48:49.091Z,6.35
2023-04-01T08:51:46.359Z,5.75
2023-04-01T08:54:48.225Z,6.05
2023-04-01T08:57:53.443Z,6.55
2023-04-01T09:01:14.572Z,5.45
2023-04-01T09:04:03.440Z,6.07
2023-04-01T09:06:50.459Z,6.43
2023-04-01T09:09:39.438Z,5.95
2023-04-01T09:12:41.779Z,6.22
2023-04-01T09:15:36.980Z,6.55
2023-04-01T09:18:38.915Z,6.50
2023-04-01T09:21:19.730Z,5.80
2023-04-01T09:24:18.694Z,36.10
2023-04-01T09:27:01.803Z,6.85
2023-04-01T09:29:32.690Z,6.32
2023-04-01T09:32:12.508Z,6.40
2023-04-01T09:35:12.347Z,6.22
2023-04-01T09:38:18.812Z,6.15
2023-04-01T09:41:13.731Z,7.15
2023-04-01T09:44:20.791Z,6.38
2023-04-01T09:47:56.404Z,6.72
2023-04-01T09:51:04.297Z,6.40
2023-04-01T09:53:35.042Z,6.20
2023-04-01T09:56:16.024Z,6.00
2023-04-01T09:58:59.155Z,6.57
2023-04-01T10:02:18.933Z,16.48
2023-04-01T10:05:06.308Z,6.60
2023-04-01T10:07:58.469Z,7.45
2023-04-01T10:11:00.586Z,7.25
2023-04-01T10:13:47.148Z,7.28
2023-04-01T10:16:33.286Z,6.90
2023-04-01T10:19:19.632Z,7.15
2023-04-01T10:21:56.557Z,7.20
2023-04-01T10:24:39.469Z,7.30
2023-04-01T10:27:34.632Z,7.72
2023-04-01T10:30:45.612Z,7.60
2023-04-01T10:34:02.340Z,8.05
2023-04-01T10:37:33.823Z,8.90
2023-04-01T10:40:31.002Z,7.95
2023-04-01T10:43:58.879Z,17.48
2023-04-01T10:46:35.677Z,8.32
2023-04-01T10:49:22.133Z,8.30
2023-04-01T10:52:14.282Z,7.38
2023-04-01T10:55:24.684Z,7.60
2023-04-01T10:58:43.713Z,7.72
2023-04-01T11:02:10.019Z,7.97
2023-04-01T11:05:26.669Z,7.63
2023-04-01T11:08:17.925Z,7.38
2023-04-01T11:10:51.949Z,7.47
2023-04-01T11:13:37.913Z,7.72
2023-04-01T11:16:34.010Z,7.32
2023-04-01T11:19:20.964Z,8.02
2023-04-01T11:22:07.049Z,8.20
2023-04-01T11:24:47.262Z,7.57
2023-04-01T11:28:03.989Z,8.30
2023-04-01T11:30:50.487Z,7.95
2023-04-01T11:33:21.407Z,8.13
2023-04-01T11:36:14.324Z,7.93
2023-04-01T11:39:06.667Z,8.15
2023-04-01T11:41:53.010Z,8.40
2023-04-01T11:45:08.995Z,8.25
2023-04-01T11:48:06.560Z,8.70
2023-04-01T11:50:49.291Z,8.55
2023-04-01T11:53:37.287Z,8.38
2023-04-01T11:56:24.253Z,9.75
2023-04-01T11:59:18.280Z,9.20
2023-04-01T12:02:01.845Z,8.93
2023-04-01T12:04:44.852Z,9.65
2023-04-01T12:08:00.911Z,9.90
2023-04-01T12:11:05.206Z,9.20
2023-04-01T12:16:11.977Z,9.23
2023-04-01T12:19:04.076Z,9.70
2023-04-01T12:21:44.250Z,10.25
2023-04-01T12:24:50.665Z,10.55
2023-04-01T12:27:24.705Z,9.80
2023-04-01T12:29:55.836Z,10.20
2023-04-01T12:32:39.571Z,10.85
2023-04-01T12:35:13.169Z,10.07
2023-04-01T12:37:45.209Z,10.23
2023-04-01T12:40:34.505Z,10.38
2023-04-01T12:43:14.212Z,10.60
2023-04-01T12:46:09.339Z,10.80
2023-04-01T12:49:11.419Z,10.82
2023-04-01T12:51:57.813Z,11.10
2023-04-01T12:54:48.078Z,11.20
2023-04-01T12:57:15.996Z,11.38
2023-04-01T12:59:55.625Z,11.60
2023-04-01T13:02:59.421Z,13.07
2023-04-01T13:05:39.119Z,11.65
2023-04-01T13:08:17.157Z,11.48
2023-04-01T13:10:51.553Z,11.10
2023-04-01T13:14:11.971Z,10.27
2023-04-01T13:17:11.073Z,10.98
2023-04-01T13:20:13.767Z,10.50
2023-04-01T13:23:12.649Z,11.55
2023-04-01T13:25:40.514Z,11.82
2023-04-01T13:28:17.431Z,13.25
2023-04-01T13:30:56.944Z,12.77
2023-04-01T13:33:48.317Z,12.98
2023-04-01T13:36:33.986Z,13.48
2023-04-01T13:39:35.050Z,13.32
2023-04-01T13:42:26.257Z,12.77
2023-04-01T13:45:16.545Z,14.25
2023-04-01T13:48:06.119Z,15.07
2023-04-01T13:50:58.030Z,15.55
2023-04-01T13:53:36.005Z,14.07
2023-04-01T13:56:23.802Z,15.02
2023-04-01T13:59:15.760Z,14.75
2023-04-01T14:01:44.115Z,13.63
2023-04-01T14:04:39.076Z,12.75
2023-04-01T14:07:23.561Z,12.25
2023-04-01T14:10:05.955Z,11.05
2023-04-01T14:12:53.453Z,11.52
2023-04-01T14:15:50.875Z,10.40
2023-04-01T14:18:34.093Z,9.93
2023-04-01T14:21:02.106Z,10.65
2023-04-01T14:24:00.754Z,10.73
2023-04-01T14:26:49.624Z,9.98
2023-04-01T14:29:33.219Z,9.70
2023-04-01T14:32:16.695Z,8.98
2023-04-01T14:35:15.863Z,9.20
2023-04-01T14:37:49.432Z,8.65
2023-04-01T14:40:29.043Z,8.18
2023-04-01T14:45:46.132Z,7.43
2023-04-01T14:51:04.606Z,7.47
2023-04-01T14:53:39.702Z,7.43
2023-04-01T14:56:07.628Z,6.50
2023-04-01T14:59:01.456Z,6.68
2023-04-01T15:01:50.670Z,6.68
2023-04-01T15:04:39.973Z,10.75
2023-04-01T15:07:28.834Z,5.50
2023-04-01T15:10:11.923Z,4.73
2023-04-01T15:12:54.722Z,5.00
2023-04-01T15:15:46.055Z,5.28
2023-04-01T15:18:51.077Z,4.85
2023-04-01T15:22:00.852Z,4.88
2023-04-01T15:24:49.130Z,4.47
2023-04-01T15:27:26.291Z,4.50
2023-04-01T15:30:18.913Z,4.25
2023-04-01T15:33:15.101Z,4.22
2023-04-01T15:36:20.402Z,4.40
2023-04-01T15:38:54.396Z,5.00
2023-04-01T15:41:43.027Z,5.20
2023-04-01T15:44:39.453Z,6.22
2023-04-01T15:47:27.279Z,6.35
2023-04-01T15:50:10.023Z,5.20
2023-04-01T15:52:50.637Z,4.47
2023-04-01T15:58:02.086Z,4.60
2023-04-01T16:00:32.837Z,4.30
2023-04-01T16:03:38.819Z,2.88
2023-04-01T16:06:15.550Z,2.78
2023-04-01T16:08:58.516Z,2.63
2023-04-01T16:11:41.859Z,3.17
2023-04-01T16:14:42.603Z,3.20
2023-04-01T16:17:32.229Z,3.25
2023-04-01T16:22:38.614Z,3.47
2023-04-01T16:25:37.647Z,3.55
2023-04-01T16:28:37.070Z,3.20
2023-04-01T16:31:04.846Z,3.33
2023-04-01T16:33:41.704Z,3.05
2023-04-01T16:36:57.254Z,3.03
2023-04-01T16:39:47.615Z,3.22
2023-04-01T16:42:36.394Z,2.85
2023-04-01T16:45:37.825Z,3.10
2023-04-01T16:48:17.094Z,2.95
2023-04-01T16:50:54.991Z,3.57
2023-04-01T16:53:41.977Z,3.40
2023-04-01T16:56:14.984Z,2.95
2023-04-01T16:59:07.718Z,3.30
2023-04-01T17:02:02.980Z,2.97
2023-04-01T17:04:40.276Z,2.97
2023-04-01T17:07:20.379Z,3.13
2023-04-01T17:09:59.324Z,3.33
2023-04-01T17:12:45.301Z,3.90
2023-04-01T17:15:45.583Z,3.45
2023-04-01T17:18:35.233Z,3.38
2023-04-01T17:21:20.106Z,3.42
2023-04-01T17:24:07.268Z,3.28
2023-04-01T17:26:46.608Z,3.35
2023-04-01T17:29:53.166Z,3.40
2023-04-01T17:32:42.932Z,4.22
2023-04-01T17:38:04.474Z,3.80
2023-04-01T17:40:44.955Z,3.50
2023-04-01T17:43:42.830Z,3.75
2023-04-01T17:46:38.502Z,3.63
2023-04-01T17:49:20.457Z,3.60
2023-04-01T17:52:17.598Z,3.80
2023-04-01T17:55:47.360Z,3.70
2023-04-01T17:58:22.282Z,3.90
2023-04-01T18:01:16.235Z,3.97
2023-04-01T18:04:04.109Z,3.80
2023-04-01T18:06:56.655Z,4.30
2023-04-01T18:09:36.893Z,3.85
2023-04-01T18:12:17.919Z,3.92
2023-04-01T18:15:04.396Z,3.80
2023-04-01T18:17:49.694Z,4.03
2023-04-01T18:20:56.730Z,3.53
2023-04-01T18:23:49.383Z,3.22
2023-04-01T18:26:39.260Z,3.83
2023-04-01T18:29:35.282Z,3.47
2023-04-01T18:32:12.080Z,4.05
2023-04-01T18:35:10.424Z,3.58
2023-04-01T18:37:47.318Z,3.72
2023-04-01T18:40:30.580Z,4.10
2023-04-01T18:43:03.961Z,3.80
2023-04-01T18:45:41.961Z,3.47
2023-04-01T18:48:44.748Z,4.00
2023-04-01T18:51:39.626Z,4.22
2023-04-01T18:54:46.405Z,4.10
2023-04-01T18:57:21.320Z,3.20
2023-04-01T19:00:05.892Z,3.35
2023-04-01T19:02:47.117Z,3.72
2023-04-01T19:05:33.317Z,3.15
2023-04-01T19:08:16.076Z,3.55
2023-04-01T19:11:13.328Z,3.53
2023-04-01T19:13:46.708Z,3.95
2023-04-01T19:16:45.203Z,3.65
2023-04-01T19:19:44.076Z,3.67
2023-04-01T19:22:39.580Z,3.72
2023-04-01T19:25:22.744Z,3.08
2023-04-01T19:28:02.990Z,3.80
2023-04-01T19:30:50.643Z,3.22
2023-04-01T19:33:44.602Z,3.10
2023-04-01T19:36:52.727Z,3.60
2023-04-01T19:39:29.768Z,3.20
2023-04-01T19:42:12.611Z,3.70
2023-04-01T19:45:16.622Z,3.17
2023-04-01T19:48:36.987Z,3.20
2023-04-01T19:51:21.259Z,3.47
2023-04-01T19:54:12.066Z,3.50
2023-04-01T19:57:00.148Z,3.67
2023-04-01T20:00:35.811Z,3.17
2023-04-01T20:03:48.539Z,3.53
2023-04-01T20:06:38.869Z,3.78
2023-04-01T20:09:44.158Z,3.63
2023-04-01T20:12:29.193Z,3.47
2023-04-01T20:15:06.473Z,4.07
2023-04-01T20:21:40.298Z,3.33
2023-04-01T20:24:26.708Z,3.67
2023-04-01T20:27:09.017Z,3.30
2023-04-01T20:30:08.932Z,3.50
2023-04-01T20:33:08.297Z,3.75
2023-04-01T20:35:47.529Z,3.53
2023-04-01T20:38:37.843Z,3.45
2023-04-01T20:41:28.751Z,3.53
2023-04-01T20:44:15.775Z,2.97
2023-04-01T20:47:38.287Z,3.25
2023-04-01T20:50:18.592Z,3.03
2023-04-01T20:53:47.314Z,2.85
2023-04-01T20:59:35.234Z,3.33
2023-04-01T21:02:44.123Z,2.92
2023-04-01T21:05:50.427Z,4.97
2023-04-01T21:08:41.589Z,3.90
2023-04-01T21:11:31.939Z,3.28
2023-04-01T21:14:30.825Z,4.45
2023-04-01T21:17:21.929Z,3.22
2023-04-01T21:19:58.483Z,3.80
2023-04-01T21:22:38.850Z,3.15
2023-04-01T21:25:33.337Z,2.95
2023-04-01T21:28:39.197Z,3.15
2023-04-01T21:31:34.841Z,3.15
2023-04-01T21:34:45.092Z,3.47
2023-04-01T21:37:48.054Z,3.25
2023-04-01T21:40:29.127Z,2.78
2023-04-01T21:43:25.041Z,2.90
2023-04-01T21:45:57.688Z,2.83
2023-04-01T21:48:45.778Z,3.00
2023-04-01T21:51:56.874Z,2.40
2023-04-01T21:55:13.489Z,3.13
2023-04-01T21:58:10.407Z,2.70
2023-04-01T22:01:28.072Z,2.58
2023-04-01T22:04:34.628Z,2.90
2023-04-01T22:07:16.429Z,3.00
2023-04-01T22:10:18.492Z,3.25
2023-04-01T22:20:57.262Z,6.22
2023-04-01T22:24:11.469Z,8.43
2023-04-01T22:27:26.452Z,8.10
2023-04-01T22:30:18.078Z,6.90
2023-04-01T22:33:03.826Z,5.70
2023-04-01T22:35:48.567Z,5.30
2023-04-01T22:39:00.265Z,8.05
2023-04-01T22:41:52.650Z,13.80
2023-04-01T22:44:42.492Z,19.00
2023-04-01T22:47:43.768Z,21.13
2023-04-01T22:50:40.041Z,17.80
2023-04-01T22:53:27.675Z,11.55
2023-04-01T22:56:04.858Z,6.63
2023-04-01T22:58:50.610Z,3.88
2023-04-01T23:01:28.757Z,3.28
2023-04-01T23:04:27.641Z,2.85
2023-04-01T23:07:38.936Z,2.97
2023-04-01T23:10:23.165Z,2.78
2023-04-01T23:12:56.059Z,2.80
2023-04-01T23:15:36.509Z,2.20
2023-04-01T23:18:15.416Z,2.45
2023-04-01T23:21:08.478Z,2.60
2023-04-01T23:23:54.661Z,2.63
2023-04-01T23:26:34.557Z,2.40
2023-04-01T23:29:09.086Z,2.60
2023-04-01T23:31:41.018Z,2.47
2023-04-01T23:34:18.004Z,2.75
2023-04-01T23:36:56.942Z,2.05
2023-04-01T23:39:42.832Z,2.53
2023-04-01T23:42:41.601Z,2.10
2023-04-01T23:45:21.318Z,2.40
2023-04-01T23:47:59.942Z,2.53
2023-04-01T23:50:29.790Z,2.97
2023-04-01T23:53:04.001Z,2.55
2023-04-01T23:55:34.805Z,2.90
2023-04-01T23:58:09.667Z,2.53
